createdAt,value
2018-03-06T00:02:02.898Z,78.10
2018-03-06T00:04:35.512Z,78.00
2018-03-06T00:07:08.914Z,78.00
2018-03-06T00:09:41.572Z,78.00
2018-03-06T00:12:14.316Z,78.20
2018-03-06T00:14:46.954Z,78.50
2018-03-06T00:17:19.322Z,78.40
2018-03-06T00:19:52.573Z,78.80
2018-03-06T00:22:25.408Z,78.80
2018-03-06T00:24:57.861Z,78.70
2018-03-06T00:27:30.374Z,78.70
2018-03-06T00:30:02.814Z,78.80
2018-03-06T00:32:36.006Z,79.00
2018-03-06T00:35:09.362Z,79.60
2018-03-06T00:37:42.056Z,79.10
2018-03-06T00:40:14.623Z,79.00
2018-03-06T00:42:47.109Z,79.20
2018-03-06T00:45:19.641Z,79.10
2018-03-06T00:47:52.122Z,79.00
2018-03-06T00:50:25.469Z,79.10
2018-03-06T00:52:58.093Z,78.90
2018-03-06T00:55:31.236Z,78.90
2018-03-06T00:58:04.063Z,79.40
2018-03-06T01:00:37.505Z,79.20
2018-03-06T01:03:10.640Z,79.10
2018-03-06T01:05:43.251Z,79.10
2018-03-06T01:08:15.870Z,79.20
2018-03-06T01:10:48.480Z,79.10
2018-03-06T01:13:21.975Z,79.00
2018-03-06T01:15:54.735Z,79.00
2018-03-06T01:18:27.975Z,78.90
2018-03-06T01:21:00.731Z,79.00
2018-03-06T01:23:33.219Z,78.90
2018-03-06T01:26:05.581Z,78.80
2018-03-06T01:28:37.984Z,78.70
2018-03-06T01:31:10.689Z,78.70
2018-03-06T01:33:43.167Z,78.50
2018-03-06T01:36:15.732Z,78.60
2018-03-06T01:38:48.326Z,78.60
2018-03-06T01:41:20.905Z,78.50
2018-03-06T01:43:53.479Z,78.70
2018-03-06T01:46:26.036Z,79.00
2018-03-06T01:48:58.553Z,78.90
2018-03-06T01:51:50.167Z,78.60
2018-03-06T01:54:22.576Z,78.60
2018-03-06T01:56:55.693Z,78.80
2018-03-06T01:59:29.139Z,78.90
2018-03-06T02:02:02.193Z,78.80
2018-03-06T02:04:35.586Z,79.10
2018-03-06T02:07:08.205Z,79.10
2018-03-06T02:09:40.760Z,79.00
2018-03-06T02:12:14.155Z,79.10
2018-03-06T02:14:46.659Z,79.20
2018-03-06T02:17:19.779Z,79.10
2018-03-06T02:19:53.167Z,79.20
2018-03-06T02:22:26.118Z,79.20
2018-03-06T02:24:58.655Z,79.10
2018-03-06T02:27:31.248Z,79.10
2018-03-06T02:30:03.910Z,79.00
2018-03-06T02:32:36.445Z,78.90
2018-03-06T02:35:09.036Z,78.90
2018-03-06T02:37:43.134Z,78.80
2018-03-06T02:40:15.899Z,78.70
2018-03-06T02:42:49.536Z,78.70
2018-03-06T02:45:23.454Z,78.70
2018-03-06T02:47:56.156Z,78.60
2018-03-06T02:50:28.689Z,78.80
2018-03-06T02:53:01.284Z,79.00
2018-03-06T02:55:34.656Z,79.10
2018-03-06T02:58:07.024Z,79.10
2018-03-06T03:00:39.575Z,79.20
2018-03-06T03:03:12.312Z,79.10
2018-03-06T03:05:45.547Z,79.10
2018-03-06T03:08:17.989Z,79.20
2018-03-06T03:10:50.662Z,79.00
2018-03-06T03:13:24.069Z,79.20
2018-03-06T03:15:57.268Z,79.30
2018-03-06T03:18:30.694Z,79.00
2018-03-06T03:21:04.265Z,79.10
2018-03-06T03:23:37.180Z,79.00
2018-03-06T03:26:10.364Z,79.00
2018-03-06T03:28:43.055Z,79.20
2018-03-06T03:31:16.426Z,79.10
2018-03-06T03:33:49.136Z,79.10
2018-03-06T03:36:22.626Z,79.40
2018-03-06T03:38:55.413Z,79.20
2018-03-06T03:41:28.066Z,79.70
2018-03-06T03:44:00.519Z,79.70
2018-03-06T03:46:33.875Z,79.70
2018-03-06T03:49:06.648Z,79.50
2018-03-06T03:51:39.319Z,79.40
2018-03-06T03:54:11.818Z,80.20
2018-03-06T03:56:44.224Z,79.20
2018-03-06T03:59:17.663Z,79.30
2018-03-06T04:01:50.286Z,79.30
2018-03-06T04:04:22.733Z,79.30
2018-03-06T04:06:55.230Z,79.30
2018-03-06T04:09:28.654Z,79.30
2018-03-06T04:12:01.240Z,79.00
2018-03-06T04:14:33.776Z,79.10
2018-03-06T04:17:06.364Z,78.70
2018-03-06T04:19:38.831Z,79.00
2018-03-06T04:22:11.323Z,79.00
2018-03-06T04:24:44.537Z,79.10
2018-03-06T04:27:17.262Z,79.00
2018-03-06T04:29:50.563Z,79.00
2018-03-06T04:32:23.083Z,78.80
2018-03-06T04:34:55.624Z,79.00
2018-03-06T04:37:28.240Z,79.30
2018-03-06T04:40:02.358Z,79.40
2018-03-06T04:42:35.186Z,79.20
2018-03-06T04:45:07.794Z,79.30
2018-03-06T04:47:40.375Z,79.30
2018-03-06T04:50:13.798Z,79.30
2018-03-06T04:52:46.524Z,79.40
2018-03-06T04:55:19.773Z,79.50
2018-03-06T04:57:53.206Z,79.60
2018-03-06T05:00:25.970Z,79.40
2018-03-06T05:02:58.423Z,79.70
2018-03-06T05:05:30.978Z,79.70
2018-03-06T05:08:03.493Z,79.50
2018-03-06T05:10:36.151Z,79.60
2018-03-06T05:13:09.500Z,79.80
2018-03-06T05:15:42.064Z,80.00
2018-03-06T05:18:16.179Z,79.50
2018-03-06T05:20:48.997Z,79.60
2018-03-06T05:23:21.536Z,79.50
2018-03-06T05:25:54.901Z,79.70
2018-03-06T05:28:27.531Z,79.70
2018-03-06T05:31:00.800Z,79.40
2018-03-06T05:33:33.466Z,79.50
2018-03-06T05:36:06.063Z,79.60
2018-03-06T05:38:38.736Z,79.30
2018-03-06T05:41:11.925Z,79.50
2018-03-06T05:43:44.771Z,79.50
2018-03-06T05:46:17.332Z,79.40
2018-03-06T05:48:49.711Z,79.60
2018-03-06T05:51:22.144Z,79.70
2018-03-06T05:53:54.700Z,80.20
2018-03-06T05:56:27.558Z,80.50
2018-03-06T05:59:00.989Z,80.60
2018-03-06T06:01:33.820Z,80.50
2018-03-06T06:04:07.113Z,80.50
2018-03-06T06:06:40.666Z,80.50
2018-03-06T06:09:13.526Z,80.30
2018-03-06T06:11:46.968Z,80.70
2018-03-06T06:14:21.091Z,80.40
2018-03-06T06:16:53.992Z,80.30
2018-03-06T06:19:26.609Z,79.90
2018-03-06T06:21:58.983Z,79.80
2018-03-06T06:24:31.487Z,80.70
2018-03-06T06:27:04.527Z,79.80
2018-03-06T06:29:37.303Z,80.00
2018-03-06T06:32:10.569Z,79.70
2018-03-06T06:34:43.076Z,79.70
2018-03-06T06:37:15.591Z,79.50
2018-03-06T06:39:48.083Z,79.90
2018-03-06T06:42:21.249Z,79.50
2018-03-06T06:44:54.111Z,79.40
2018-03-06T06:47:26.568Z,80.10
2018-03-06T06:49:58.936Z,79.40
2018-03-06T06:52:31.445Z,79.00
2018-03-06T06:55:04.042Z,78.70
2018-03-06T06:57:36.574Z,78.40
2018-03-06T07:00:09.082Z,78.50
2018-03-06T07:02:41.485Z,78.60
2018-03-06T07:05:14.042Z,78.40
2018-03-06T07:07:47.229Z,78.30
2018-03-06T07:10:20.287Z,78.30
2018-03-06T07:12:53.504Z,78.00
2018-03-06T07:15:26.749Z,77.50
2018-03-06T07:17:59.447Z,77.60
2018-03-06T07:20:31.846Z,77.30
2018-03-06T07:23:05.268Z,77.40
2018-03-06T07:25:38.008Z,77.10
2018-03-06T07:28:10.518Z,77.20
2018-03-06T07:30:43.147Z,76.80
2018-03-06T07:33:15.543Z,76.90
2018-03-06T07:35:48.801Z,76.50
2018-03-06T07:38:21.406Z,76.40
2018-03-06T07:40:54.024Z,76.40
2018-03-06T07:43:26.509Z,76.40
2018-03-06T07:45:59.119Z,76.40
2018-03-06T07:48:32.417Z,76.40
2018-03-06T07:51:05.510Z,76.20
2018-03-06T07:53:38.183Z,76.20
2018-03-06T07:56:10.814Z,76.20
2018-03-06T07:58:43.143Z,76.00
2018-03-06T08:01:15.583Z,75.80
2018-03-06T08:03:48.796Z,75.50
2018-03-06T08:06:22.402Z,75.10
2018-03-06T08:08:55.867Z,74.80
2018-03-06T08:11:29.501Z,74.60
2018-03-06T08:14:02.355Z,74.60
2018-03-06T08:16:34.828Z,74.60
2018-03-06T08:19:07.326Z,74.40
2018-03-06T08:21:39.968Z,74.50
2018-03-06T08:24:12.594Z,74.60
2018-03-06T08:26:45.875Z,74.50
2018-03-06T08:29:18.877Z,74.40
2018-03-06T08:31:51.241Z,74.00
2018-03-06T08:34:24.424Z,73.40
2018-03-06T08:36:57.990Z,73.80
2018-03-06T08:39:30.779Z,73.20
2018-03-06T08:42:03.471Z,73.10
2018-03-06T08:44:35.903Z,72.80
2018-03-06T08:47:08.337Z,72.40
2018-03-06T08:49:40.865Z,72.20
2018-03-06T08:52:14.046Z,72.10
2018-03-06T08:54:47.735Z,72.30
2018-03-06T08:57:20.448Z,72.30
2018-03-06T08:59:52.754Z,72.40
2018-03-06T09:02:25.999Z,71.90
2018-03-06T09:04:58.771Z,71.80
2018-03-06T09:07:31.389Z,71.80
2018-03-06T09:10:04.749Z,71.90
2018-03-06T09:12:37.201Z,71.90
2018-03-06T09:15:10.586Z,71.60
2018-03-06T09:17:43.127Z,71.10
2018-03-06T09:20:15.601Z,70.90
2018-03-06T09:22:48.845Z,70.70
2018-03-06T09:25:21.573Z,70.70
2018-03-06T09:27:54.956Z,70.50
2018-03-06T09:30:27.830Z,70.50
2018-03-06T09:33:00.484Z,70.40
2018-03-06T09:35:32.985Z,70.70
2018-03-06T09:38:05.448Z,70.60
2018-03-06T09:40:38.556Z,70.70
2018-03-06T09:43:11.211Z,70.70
2018-03-06T09:45:43.838Z,70.20
2018-03-06T09:48:17.120Z,70.00
2018-03-06T09:50:49.742Z,70.00
2018-03-06T09:53:22.443Z,70.10
2018-03-06T09:55:55.643Z,69.50
2018-03-06T09:58:28.398Z,69.50
2018-03-06T10:01:00.890Z,69.30
2018-03-06T10:03:34.126Z,70.10
2018-03-06T10:06:06.911Z,70.00
2018-03-06T10:08:40.376Z,69.20
2018-03-06T10:11:13.360Z,69.10
2018-03-06T10:13:47.284Z,69.00
2018-03-06T10:16:20.060Z,69.00
2018-03-06T10:18:52.437Z,69.70
2018-03-06T10:21:24.752Z,69.60
2018-03-06T10:23:58.098Z,69.60
2018-03-06T10:26:30.860Z,69.60
2018-03-06T10:29:03.229Z,70.20
2018-03-06T10:31:35.614Z,69.70
2018-03-06T10:34:08.099Z,69.90
2018-03-06T10:36:40.588Z,70.20
2018-03-06T10:39:13.918Z,70.30
2018-03-06T10:41:46.617Z,70.30
2018-03-06T10:44:19.885Z,70.60
2018-03-06T10:46:52.646Z,70.60
2018-03-06T10:49:25.324Z,70.80
2018-03-06T10:51:57.818Z,70.50
2018-03-06T10:54:30.464Z,70.40
2018-03-06T10:57:02.959Z,70.50
2018-03-06T10:59:35.590Z,70.40
2018-03-06T11:02:14.129Z,70.60
2018-03-06T11:04:47.489Z,70.50
2018-03-06T11:07:20.068Z,70.50
2018-03-06T11:09:52.780Z,70.10
2018-03-06T11:12:25.266Z,70.10
2018-03-06T11:14:57.784Z,70.00
2018-03-06T11:17:30.250Z,70.10
2018-03-06T11:20:02.676Z,70.40
2018-03-06T11:22:36.010Z,70.20
2018-03-06T11:25:08.720Z,70.20
2018-03-06T11:27:41.261Z,70.40
2018-03-06T11:30:13.740Z,70.70
2018-03-06T11:32:46.157Z,70.90
2018-03-06T11:35:18.733Z,70.90
2018-03-06T11:37:51.968Z,70.70
2018-03-06T11:40:24.752Z,70.70
2018-03-06T11:42:57.055Z,70.70
2018-03-06T11:45:30.296Z,70.60
2018-03-06T11:48:02.895Z,70.50
2018-03-06T11:50:35.417Z,70.80
2018-03-06T11:53:07.982Z,70.80
2018-03-06T11:55:40.612Z,70.40
2018-03-06T11:58:14.036Z,70.60
2018-03-06T12:00:46.541Z,70.50
2018-03-06T12:03:19.902Z,70.70
2018-03-06T12:05:53.356Z,70.40
2018-03-06T12:08:26.049Z,70.30
2018-03-06T12:10:58.641Z,70.50
2018-03-06T12:13:31.161Z,70.40
2018-03-06T12:16:03.626Z,70.40
2018-03-06T12:18:37.062Z,70.40
2018-03-06T12:21:09.474Z,70.30
2018-03-06T12:23:41.848Z,70.00
2018-03-06T12:26:14.431Z,70.10
2018-03-06T12:28:46.861Z,69.80
2018-03-06T12:31:20.154Z,69.80
2018-03-06T12:33:52.827Z,69.80
2018-03-06T12:36:25.275Z,69.80
2018-03-06T12:38:58.463Z,69.90
2018-03-06T12:41:32.094Z,70.00
2018-03-06T12:44:04.829Z,70.00
2018-03-06T12:46:37.256Z,70.00
2018-03-06T12:49:10.397Z,69.50
2018-03-06T12:51:43.099Z,69.50
2018-03-06T12:54:15.550Z,69.10
2018-03-06T12:56:48.219Z,69.10
2018-03-06T12:59:20.681Z,69.00
2018-03-06T13:01:53.832Z,68.70
2018-03-06T13:04:26.799Z,68.70
2018-03-06T13:06:59.367Z,69.40
2018-03-06T13:09:31.912Z,68.50
2018-03-06T13:12:04.465Z,68.70
2018-03-06T13:14:37.649Z,68.50
2018-03-06T13:17:10.299Z,68.50
2018-03-06T13:19:42.740Z,68.20
2018-03-06T13:22:15.140Z,67.70
2018-03-06T13:24:47.662Z,67.80
2018-03-06T13:27:20.158Z,67.50
2018-03-06T13:29:52.846Z,67.50
2018-03-06T13:32:25.295Z,67.30
2018-03-06T13:34:58.673Z,67.30
2018-03-06T13:37:31.203Z,67.70
2018-03-06T13:40:03.694Z,67.80
2018-03-06T13:42:36.068Z,67.40
2018-03-06T13:45:09.468Z,67.50
2018-03-06T13:47:41.953Z,67.90
2018-03-06T13:50:15.078Z,67.30
2018-03-06T13:52:48.531Z,67.50
2018-03-06T13:55:21.082Z,67.50
2018-03-06T13:57:53.526Z,67.60
2018-03-06T14:00:26.002Z,67.10
2018-03-06T14:02:58.347Z,67.10
2018-03-06T14:05:30.797Z,67.20
2018-03-06T14:08:03.285Z,67.30
2018-03-06T14:10:37.299Z,67.20
2018-03-06T14:13:10.175Z,67.20
2018-03-06T14:15:42.788Z,67.60
2018-03-06T14:18:15.374Z,67.30
2018-03-06T14:20:47.941Z,67.60
2018-03-06T14:23:21.332Z,67.90
2018-03-06T14:25:53.935Z,67.80
2018-03-06T14:28:27.139Z,68.00
2018-03-06T14:30:59.917Z,68.00
2018-03-06T14:33:33.261Z,68.00
2018-03-06T14:36:05.813Z,67.90
2018-03-06T14:38:38.414Z,68.30
2018-03-06T14:41:11.760Z,68.50
2018-03-06T14:43:44.419Z,68.50
2018-03-06T14:46:16.796Z,68.60
2018-03-06T14:48:50.097Z,68.50
2018-03-06T14:51:22.712Z,68.50
2018-03-06T14:53:55.248Z,68.70
2018-03-06T14:56:28.426Z,68.30
2018-03-06T14:59:01.776Z,68.40
2018-03-06T15:01:34.482Z,68.30
2018-03-06T15:04:07.087Z,68.60
2018-03-06T15:06:39.680Z,68.60
2018-03-06T15:09:12.794Z,68.80
2018-03-06T15:11:45.596Z,68.80
2018-03-06T15:14:18.117Z,68.90
2018-03-06T15:16:50.557Z,69.10
2018-03-06T15:19:23.811Z,69.40
2018-03-06T15:21:56.581Z,69.40
2018-03-06T15:24:28.933Z,69.50
2018-03-06T15:27:01.331Z,69.60
2018-03-06T15:29:34.005Z,69.70
2018-03-06T15:32:06.653Z,69.90
2018-03-06T15:34:39.355Z,69.90
2018-03-06T15:37:11.852Z,69.80
2018-03-06T15:39:44.393Z,69.90
2018-03-06T15:42:18.212Z,70.00
2018-03-06T15:44:51.181Z,69.90
2018-03-06T15:47:23.571Z,70.00
2018-03-06T15:49:56.961Z,70.70
2018-03-06T15:52:30.471Z,70.10
2018-03-06T15:55:03.623Z,70.30
2018-03-06T15:57:37.910Z,70.30
2018-03-06T16:00:11.027Z,70.40
2018-03-06T16:02:44.973Z,70.60
2018-03-06T16:05:17.747Z,70.60
2018-03-06T16:07:50.880Z,70.70
2018-03-06T16:10:23.638Z,70.80
2018-03-06T16:12:56.072Z,70.80
2018-03-06T16:15:28.526Z,70.90
2018-03-06T16:18:01.726Z,71.00
2018-03-06T16:20:34.229Z,71.10
2018-03-06T16:23:06.728Z,71.20
2018-03-06T16:25:39.418Z,71.20
2018-03-06T16:28:11.768Z,71.30
2018-03-06T16:30:44.240Z,72.20
2018-03-06T16:33:17.399Z,71.40
2018-03-06T16:35:50.053Z,71.50
2018-03-06T16:38:22.680Z,71.60
2018-03-06T16:40:55.151Z,71.70
2018-03-06T16:43:27.693Z,71.90
2018-03-06T16:46:00.212Z,71.90
2018-03-06T16:48:32.814Z,72.00
2018-03-06T16:51:05.281Z,72.10
2018-03-06T16:53:37.780Z,72.30
2018-03-06T16:56:10.262Z,72.40
2018-03-06T16:58:42.687Z,72.50
2018-03-06T17:01:15.318Z,72.60
2018-03-06T17:03:47.844Z,73.30
2018-03-06T17:06:21.179Z,73.10
2018-03-06T17:08:53.723Z,73.10
2018-03-06T17:11:26.232Z,73.10
2018-03-06T17:13:59.343Z,73.30
2018-03-06T17:16:32.129Z,73.10
2018-03-06T17:19:04.619Z,73.60
2018-03-06T17:21:38.873Z,73.90
2018-03-06T17:24:11.531Z,73.30
2018-03-06T17:26:43.912Z,73.40
2018-03-06T17:29:16.367Z,73.60
2018-03-06T17:31:49.077Z,73.80
2018-03-06T17:34:23.406Z,73.90
2018-03-06T17:36:56.117Z,73.90
2018-03-06T17:39:29.541Z,74.00
2018-03-06T17:42:02.048Z,74.00
2018-03-06T17:44:34.497Z,74.20
2018-03-06T17:47:07.193Z,74.30
2018-03-06T17:49:40.428Z,74.30
2018-03-06T17:52:14.030Z,74.50
2018-03-06T17:54:47.485Z,74.70
2018-03-06T17:57:20.167Z,74.70
2018-03-06T17:59:53.640Z,74.80
2018-03-06T18:02:27.376Z,74.90
2018-03-06T18:05:00.813Z,74.90
2018-03-06T18:07:34.544Z,75.10
2018-03-06T18:10:07.846Z,75.10
2018-03-06T18:12:42.690Z,75.20
2018-03-06T18:15:15.898Z,75.10
2018-03-06T18:17:49.053Z,75.20
2018-03-06T18:20:23.484Z,75.20
2018-03-06T18:22:57.573Z,75.20
2018-03-06T18:25:31.121Z,75.30
2018-03-06T18:28:04.981Z,75.30
2018-03-06T18:30:38.400Z,75.30
2018-03-06T18:33:11.750Z,75.30
2018-03-06T18:35:45.199Z,75.40
2018-03-06T18:38:19.843Z,75.70
2018-03-06T18:40:53.273Z,75.60
2018-03-06T18:43:26.570Z,75.70
2018-03-06T18:45:59.984Z,75.80
2018-03-06T18:48:33.888Z,75.90
2018-03-06T18:51:12.953Z,75.90
2018-03-06T18:53:46.679Z,76.10
2018-03-06T18:56:20.947Z,76.30
2018-03-06T18:58:54.729Z,76.30
2018-03-06T19:05:20.140Z,76.70
2018-03-06T19:07:54.384Z,76.90
2018-03-06T19:10:28.585Z,76.90
2018-03-06T19:13:02.586Z,77.00
2018-03-06T19:15:37.066Z,77.20
2018-03-06T19:18:11.372Z,77.50
2018-03-06T19:20:45.824Z,77.70
2018-03-06T19:23:21.091Z,78.30
2018-03-06T19:25:56.553Z,78.40
2018-03-06T19:28:31.247Z,78.50
2018-03-06T19:31:05.782Z,78.50
2018-03-06T19:33:40.154Z,78.50
2018-03-06T19:36:15.081Z,78.40
2018-03-06T19:38:49.369Z,78.50
2018-03-06T19:41:24.049Z,78.50
2018-03-06T19:43:58.384Z,78.40
2018-03-06T19:46:32.889Z,78.60
2018-03-06T19:49:06.973Z,78.80
2018-03-06T19:51:41.577Z,78.90
2018-03-06T19:54:15.840Z,78.90
2018-03-06T19:56:51.215Z,78.80
2018-03-06T19:59:26.063Z,78.80
2018-03-06T20:02:00.638Z,78.90
2018-03-06T20:04:34.915Z,79.00
2018-03-06T20:07:09.431Z,79.10
2018-03-06T20:09:45.217Z,79.80
2018-03-06T20:12:20.389Z,79.10
2018-03-06T20:15:00.350Z,78.80
2018-03-06T20:17:35.196Z,79.20
2018-03-06T20:20:09.697Z,79.30
2018-03-06T20:22:45.528Z,79.50
2018-03-06T20:25:26.237Z,79.50
2018-03-06T20:28:01.086Z,79.60
2018-03-06T20:30:41.339Z,79.70
2018-03-06T20:33:17.375Z,80.40
2018-03-06T20:35:52.235Z,79.80
2018-03-06T20:38:32.269Z,79.90
2018-03-06T20:41:07.539Z,79.90
2018-03-06T20:43:42.483Z,79.90
2018-03-06T20:46:22.747Z,79.80
2018-03-06T20:48:58.493Z,80.50
2018-03-06T20:51:33.072Z,79.80
2018-03-06T20:54:13.771Z,79.80
2018-03-06T20:56:48.304Z,79.80
2018-03-06T20:59:22.755Z,79.80
2018-03-06T21:01:57.043Z,79.90
2018-03-06T21:04:31.572Z,79.90
2018-03-06T21:07:06.540Z,80.20
2018-03-06T21:09:42.364Z,80.40
2018-03-06T21:12:17.912Z,80.40
2018-03-06T21:14:52.440Z,80.40
2018-03-06T21:17:26.923Z,80.60
2018-03-06T21:20:01.510Z,80.60
2018-03-06T21:22:36.573Z,81.00
2018-03-06T21:25:11.334Z,80.80
2018-03-06T21:27:45.635Z,80.80
2018-03-06T21:30:20.082Z,80.80
2018-03-06T21:32:55.299Z,80.90
2018-03-06T21:35:29.874Z,80.90
2018-03-06T21:38:03.502Z,80.90
2018-03-06T21:40:37.606Z,80.90
2018-03-06T21:43:11.696Z,80.80
2018-03-06T21:45:45.683Z,81.50
2018-03-06T21:48:19.248Z,80.70
2018-03-06T21:50:51.973Z,80.70
2018-03-06T21:53:25.380Z,80.70
2018-03-06T21:55:59.000Z,81.30
2018-03-06T21:58:31.754Z,80.70
2018-03-06T22:01:05.895Z,80.70
2018-03-06T22:03:38.830Z,80.70
2018-03-06T22:06:12.187Z,80.70
2018-03-06T22:08:44.789Z,80.70
2018-03-06T22:11:17.235Z,80.70
2018-03-06T22:13:49.655Z,80.70
2018-03-06T22:16:22.155Z,80.80
2018-03-06T22:18:55.392Z,80.70
2018-03-06T22:21:27.753Z,80.80
2018-03-06T22:24:00.151Z,80.80
2018-03-06T22:26:33.531Z,80.80
2018-03-06T22:29:05.937Z,80.90
2018-03-06T22:31:38.383Z,80.90
2018-03-06T22:34:10.983Z,80.90
2018-03-06T22:36:45.069Z,80.90
2018-03-06T22:39:17.831Z,80.80
2018-03-06T22:41:50.326Z,80.90
2018-03-06T22:44:22.804Z,80.80
2018-03-06T22:46:55.236Z,80.80
2018-03-06T22:49:27.756Z,80.80
2018-03-06T22:52:00.210Z,80.70
2018-03-06T22:54:33.322Z,80.70
2018-03-06T22:57:06.137Z,80.70
2018-03-06T22:59:38.577Z,80.70
2018-03-06T23:02:11.013Z,80.70
2018-03-06T23:04:43.429Z,80.70
2018-03-06T23:07:16.647Z,80.80
2018-03-06T23:09:49.181Z,80.80
2018-03-06T23:12:21.650Z,80.80
2018-03-06T23:14:54.103Z,80.70
2018-03-06T23:17:26.605Z,80.80
2018-03-06T23:19:59.720Z,80.90
2018-03-06T23:22:32.516Z,80.70
2018-03-06T23:25:04.862Z,80.80
2018-03-06T23:27:38.009Z,81.50
2018-03-06T23:30:10.603Z,80.80
2018-03-06T23:32:43.831Z,80.80
2018-03-06T23:35:16.449Z,80.80
2018-03-06T23:37:48.996Z,80.80
2018-03-06T23:40:21.458Z,80.70
2018-03-06T23:42:53.857Z,80.80
2018-03-06T23:45:26.312Z,80.80
2018-03-06T23:47:58.713Z,80.90
2018-03-06T23:50:32.085Z,81.00
2018-03-06T23:53:05.371Z,81.00
2018-03-06T23:55:37.859Z,81.00
2018-03-06T23:58:10.363Z,81.00
